This is the latest recevied weather packets stored in our database for station/object KC0AFB. If no packets are shown the sender has not sent any weather packets the latest 10 day(s).
| Time | Temp. | Humidity | Pressure | Rain* | Wind** | Luminosity | Snow |
|---|---|---|---|---|---|---|---|
| 1777873713 | 10° C | 68% | 1002.1 hPa | 0 mm | - | 0 W/m² | - |
| 1777873410 | 10° C | 67% | 1002.2 hPa | 0 mm | - | 0 W/m² | - |
| 1777873106 | 10° C | 67% | 1001.7 hPa | 0 mm | - | 0 W/m² | - |
| 1777872803 | 10° C | 67% | 1001.6 hPa | 0 mm | - | 0 W/m² | - |
| 1777872500 | 10° C | 67% | 1001.9 hPa | 0 mm | - | 0 W/m² | - |
| 1777872199 | 10.56° C | 66% | 1001.6 hPa | 0 mm | - | 0 W/m² | - |
| 1777871895 | 10.56° C | 66% | 1001.5 hPa | 0 mm | - | 0 W/m² | - |
| 1777871592 | 10.56° C | 65% | 1001.5 hPa | 0 mm | - | 0 W/m² | - |
| 1777871289 | 11.11° C | 64% | 1001.3 hPa | 0 mm | - | 0 W/m² | - |
| 1777870985 | 11.11° C | 63% | 1001.2 hPa | 0 mm | - | 0 W/m² | - |
| 1777870682 | 11.67° C | 62% | 1001.3 hPa | 0 mm | - | 0 W/m² | - |
| 1777870377 | 12.22° C | 61% | 1000.8 hPa | 0 mm | - | 0 W/m² | - |
| 1777870075 | 15° C | 55% | 1000.4 hPa | 0 mm | - | 0 W/m² | - |
| 1777869772 | 16.11° C | 40% | 999.8 hPa | 0 mm | - | 0 W/m² | - |
| 1777869469 | 16.67° C | 37% | 998.8 hPa | 0 mm | - | 0 W/m² | - |
| 1777869166 | 15.56° C | 41% | 998.9 hPa | 0 mm | - | 0 W/m² | - |
| 1777868864 | 15.56° C | 44% | 998.7 hPa | 0 mm | - | 0 W/m² | - |
| 1777868560 | 15° C | 45% | 998.5 hPa | 0 mm | - | 0 W/m² | - |
| 1777868256 | 15.56° C | 45% | 998.6 hPa | 0 mm | - | 0 W/m² | - |
| 1777867952 | 15.56° C | 44% | 999 hPa | 0 mm | - | 0 W/m² | - |
| 1777867648 | 15.56° C | 44% | 998.9 hPa | 0 mm | - | 0 W/m² | - |
| 1777867346 | 16.11° C | 45% | 998.6 hPa | 0 mm | - | 0 W/m² | - |
| 1777867042 | 16.11° C | 45% | 998.8 hPa | 0 mm | - | 0 W/m² | - |
| 1777866740 | 15.56° C | 46% | 998.8 hPa | 0 mm | - | 0 W/m² | - |
| 1777866437 | 15.56° C | 47% | 998.7 hPa | 0 mm | - | 0 W/m² | - |
* Rain latest hour (hover to see other rain measurements)
** Current wind speed in m/s (hover to see current wind gust speed)